Time;durP1;ratioP1;P1;durP2;ratioP2;P2;SDS_P1;SDS_P2;PMS_P1;PMS_P2;Temp;Humidity;BMP_temperature;BMP_pressure;BME280_temperature;BME280_humidity;BME280_pressure;Samples;Min_cycle;Max_cycle;Signal;HPM_P1;HPM_P2
2022/05/06 00:04:32;;;;;;;4.22;1.30;;;11.10;99.90;;;;;;10347884;28;20049;-58
2022/05/06 00:09:34;;;;;;;2.67;1.27;;;11.10;99.90;;;;;;10337819;28;20500;-59
2022/05/06 00:14:36;;;;;;;4.00;1.48;;;11.00;99.90;;;;;;10363021;28;20104;-58
2022/05/06 00:19:38;;;;;;;3.42;1.70;;;10.90;99.90;;;;;;10336907;28;20057;-58
2022/05/06 00:24:40;;;;;;;4.63;1.35;;;10.80;99.90;;;;;;10351266;28;20046;-58
2022/05/06 00:29:42;;;;;;;3.70;1.40;;;10.70;99.90;;;;;;10348801;28;20053;-58
2022/05/06 00:34:44;;;;;;;2.70;1.27;;;10.60;99.90;;;;;;10352121;28;20111;-58
2022/05/06 00:39:46;;;;;;;4.45;1.30;;;10.60;99.90;;;;;;10354529;28;20575;-60
2022/05/06 00:44:47;;;;;;;3.67;0.93;;;10.50;99.90;;;;;;10326631;28;20053;-60
2022/05/06 00:49:50;;;;;;;1.65;0.90;;;10.50;99.90;;;;;;10352858;28;20409;-61
2022/05/06 00:54:52;;;;;;;2.00;1.05;;;10.40;99.90;;;;;;10350917;28;20052;-60
2022/05/06 01:05:15;;;;;;;2.03;1.20;;;10.30;99.90;;;;;;10351379;28;20054;-57
2022/05/06 01:10:18;;;;;;;2.63;1.00;;;10.20;99.90;;;;;;10357004;28;20128;-58
2022/05/06 01:15:28;;;;;;;3.33;1.25;;;10.10;99.90;;;;;;10353910;28;20057;-58
2022/05/06 01:20:33;;;;;;;4.07;1.10;;;10.10;99.90;;;;;;10346928;28;20080;-58
2022/05/06 01:25:35;;;;;;;1.83;1.05;;;10.00;99.90;;;;;;10362299;28;20326;-58
2022/05/06 01:30:48;;;;;;;6.47;1.08;;;9.90;99.90;;;;;;10343801;28;20050;-58
2022/05/06 01:35:53;;;;;;;2.35;1.00;;;10.00;99.90;;;;;;10348697;28;20520;-59
2022/05/06 01:41:17;;;;;;;3.53;0.80;;;9.80;99.90;;;;;;10354866;28;20054;-57
2022/05/06 01:46:21;;;;;;;5.55;1.02;;;9.80;99.90;;;;;;10346886;28;20058;-57
2022/05/06 01:51:24;;;;;;;2.72;1.25;;;9.80;99.90;;;;;;10354396;28;20464;-58
2022/05/06 01:56:25;;;;;;;5.78;1.20;;;9.80;99.90;;;;;;10345917;28;20061;-58
2022/05/06 02:01:29;;;;;;;2.67;1.08;;;9.70;99.90;;;;;;10350891;28;20685;-57
2022/05/06 02:06:31;;;;;;;6.20;1.27;;;9.70;99.90;;;;;;10354099;28;20140;-58
2022/05/06 02:11:33;;;;;;;5.63;1.80;;;9.70;99.90;;;;;;10352795;28;20112;-58
2022/05/06 02:16:35;;;;;;;7.53;1.67;;;9.60;99.90;;;;;;10367400;28;20565;-58
2022/05/06 02:21:37;;;;;;;5.95;1.15;;;9.50;99.90;;;;;;10367009;28;20492;-59
2022/05/06 02:26:38;;;;;;;3.53;1.17;;;9.40;99.90;;;;;;10332020;28;20057;-58
2022/05/06 02:37:00;;;;;;;3.28;1.30;;;9.30;99.90;;;;;;10367103;28;20107;-58
2022/05/06 02:42:02;;;;;;;6.05;1.50;;;9.20;99.90;;;;;;10366844;28;20100;-57
2022/05/06 02:47:04;;;;;;;2.05;0.98;;;9.20;99.90;;;;;;10349788;28;20065;-57
2022/05/06 02:52:09;;;;;;;5.45;1.27;;;9.00;99.90;;;;;;10352041;28;20057;-57
2022/05/06 02:57:11;;;;;;;3.50;1.20;;;9.10;99.90;;;;;;10344862;28;20062;-58
2022/05/06 03:02:12;;;;;;;1.60;1.00;;;9.10;99.90;;;;;;10360992;28;20414;-57
2022/05/06 03:07:14;;;;;;;2.83;0.90;;;9.00;99.90;;;;;;10364325;28;20451;-58
2022/05/06 03:12:19;;;;;;;4.20;1.40;;;9.00;99.90;;;;;;10356375;28;20446;-57
2022/05/06 03:17:21;;;;;;;4.25;1.17;;;8.90;99.90;;;;;;10360504;28;20054;-57
2022/05/06 03:22:23;;;;;;;2.40;0.93;;;8.90;99.90;;;;;;10348198;28;20085;-57
2022/05/06 03:32:46;;;;;;;5.45;1.20;;;8.80;99.90;;;;;;10360490;28;20762;-57
2022/05/06 03:37:48;;;;;;;3.72;1.00;;;8.90;99.90;;;;;;10356458;28;20116;-57
2022/05/06 03:42:50;;;;;;;2.72;1.35;;;8.90;99.90;;;;;;10357990;28;20050;-58
2022/05/06 03:47:54;;;;;;;2.55;0.85;;;8.90;99.90;;;;;;10362623;28;20054;-57
2022/05/06 03:52:56;;;;;;;6.03;1.45;;;8.80;99.90;;;;;;10337629;28;20057;-60
2022/05/06 03:57:58;;;;;;;5.78;1.00;;;8.80;99.90;;;;;;10356818;28;20053;-59
2022/05/06 04:03:00;;;;;;;2.53;0.93;;;8.90;99.90;;;;;;10349344;28;20085;-59
2022/05/06 04:08:07;;;;;;;4.22;1.50;;;8.90;99.90;;;;;;10349969;28;20146;-59
2022/05/06 04:13:09;;;;;;;5.65;1.23;;;8.90;99.90;;;;;;10356015;28;20496;-58
2022/05/06 04:18:10;;;;;;;4.78;0.90;;;8.90;99.90;;;;;;10356168;28;20065;-58
2022/05/06 04:23:30;;;;;;;5.18;1.30;;;8.90;99.90;;;;;;10344501;28;20046;-60
2022/05/06 04:28:34;;;;;;;5.40;1.40;;;8.80;99.90;;;;;;10362497;28;20109;-59
2022/05/06 04:33:39;;;;;;;4.32;0.98;;;8.80;99.90;;;;;;10357597;28;20054;-60
2022/05/06 04:38:40;;;;;;;5.43;0.90;;;8.80;99.90;;;;;;10346241;28;20128;-57
2022/05/06 04:43:42;;;;;;;2.10;0.80;;;8.90;99.90;;;;;;10351345;28;21016;-59
2022/05/06 04:48:44;;;;;;;3.85;0.77;;;9.00;99.90;;;;;;10341004;28;20058;-59
2022/05/06 04:53:45;;;;;;;3.67;1.00;;;9.00;99.90;;;;;;10347737;28;20129;-59
2022/05/06 04:58:47;;;;;;;3.53;1.27;;;9.20;99.90;;;;;;10347462;28;20053;-63
2022/05/06 05:03:49;;;;;;;1.58;1.10;;;9.20;99.90;;;;;;10350818;28;20049;-60
2022/05/06 05:08:50;;;;;;;4.97;1.00;;;9.30;99.90;;;;;;10342879;28;20050;-59
2022/05/06 05:13:52;;;;;;;1.20;0.60;;;9.50;99.90;;;;;;10351571;28;20124;-60
2022/05/06 05:18:54;;;;;;;1.50;0.63;;;9.70;99.90;;;;;;10359199;28;20496;-60
2022/05/06 05:23:56;;;;;;;2.75;0.80;;;9.90;99.90;;;;;;10340574;28;20144;-59
2022/05/06 05:28:57;;;;;;;3.70;0.75;;;10.00;99.90;;;;;;10343168;28;20041;-58
2022/05/06 05:33:59;;;;;;;2.53;0.82;;;10.20;99.90;;;;;;10341341;28;20065;-59
2022/05/06 05:39:00;;;;;;;2.58;0.77;;;10.40;99.90;;;;;;10342907;28;20053;-57
2022/05/06 05:49:23;;;;;;;1.08;0.65;;;10.70;99.90;;;;;;10348860;28;20037;-59
2022/05/06 05:54:24;;;;;;;1.33;0.60;;;10.90;99.90;;;;;;10347984;28;20097;-58
2022/05/06 05:59:26;;;;;;;3.00;0.90;;;11.10;99.90;;;;;;10341706;28;20124;-58
2022/05/06 06:04:28;;;;;;;4.78;0.68;;;11.30;99.90;;;;;;10343266;28;20109;-58
2022/05/06 06:09:32;;;;;;;3.20;0.52;;;11.60;99.90;;;;;;10338102;28;20115;-57
2022/05/06 06:14:57;;;;;;;0.98;0.40;;;11.80;99.90;;;;;;10347928;28;20050;-59
2022/05/06 06:20:01;;;;;;;2.88;0.50;;;12.10;98.50;;;;;;10342633;28;20420;-58
2022/05/06 06:25:04;;;;;;;1.60;0.43;;;12.30;96.00;;;;;;10349485;28;20834;-58
2022/05/06 06:30:06;;;;;;;1.10;0.50;;;12.60;92.50;;;;;;10352754;28;20057;-58
2022/05/06 06:35:08;;;;;;;1.48;0.50;;;12.80;90.30;;;;;;10350193;28;20058;-58
2022/05/06 06:40:10;;;;;;;5.15;0.45;;;13.10;85.10;;;;;;10348617;28;20050;-56
2022/05/06 06:45:12;;;;;;;1.05;0.38;;;13.30;82.00;;;;;;10343895;28;20648;-59
2022/05/06 06:50:14;;;;;;;0.73;0.40;;;13.40;79.30;;;;;;10350378;28;20111;-58
2022/05/06 06:55:16;;;;;;;0.75;0.30;;;13.70;78.00;;;;;;10357187;28;20050;-57
2022/05/06 07:00:18;;;;;;;1.23;0.30;;;13.80;75.20;;;;;;10363648;28;20046;-58
2022/05/06 07:05:20;;;;;;;4.35;0.40;;;14.00;74.20;;;;;;10356293;28;20060;-58
2022/05/06 07:16:02;;;;;;;1.73;0.30;;;14.40;78.50;;;;;;10344809;28;20061;-58
2022/05/06 07:21:04;;;;;;;2.50;0.40;;;14.60;78.40;;;;;;10359016;28;20053;-58
2022/05/06 07:26:05;;;;;;;1.60;0.43;;;14.70;75.50;;;;;;10354529;28;20112;-57
2022/05/06 07:31:07;;;;;;;3.28;0.40;;;14.90;72.40;;;;;;10357791;28;20124;-58
2022/05/06 07:36:09;;;;;;;3.25;0.50;;;15.00;71.70;;;;;;10343623;28;20132;-59
2022/05/06 07:41:11;;;;;;;4.90;0.60;;;15.10;72.80;;;;;;10365492;28;20045;-58
2022/05/06 07:46:13;;;;;;;3.30;0.63;;;15.20;73.80;;;;;;10343799;28;20076;-59
2022/05/06 07:51:15;;;;;;;0.95;0.50;;;15.30;72.30;;;;;;10352481;28;20053;-59
2022/05/06 07:56:17;;;;;;;0.80;0.40;;;15.50;72.00;;;;;;10348143;28;20090;-58
2022/05/06 08:04:32;;;;;;;0.70;0.40;;;15.50;71.20;;;;;;10342230;28;20393;-59
2022/05/06 08:06:44;;;;;;;0.95;0.50;;;15.70;72.00;;;;;;10345957;28;20050;-59
2022/05/06 08:11:46;;;;;;;1.80;0.50;;;15.80;72.30;;;;;;10342007;28;20062;-59
2022/05/06 08:16:49;;;;;;;2.75;0.60;;;15.90;72.40;;;;;;10348989;28;20061;-59
2022/05/06 08:21:51;;;;;;;2.00;0.45;;;16.00;70.80;;;;;;10351275;28;20054;-59
2022/05/06 08:26:53;;;;;;;1.77;0.50;;;16.10;65.70;;;;;;10362428;28;20460;-60
2022/05/06 08:31:55;;;;;;;0.95;0.40;;;16.30;70.70;;;;;;10346903;28;20038;-59
2022/05/06 08:36:57;;;;;;;1.38;0.57;;;16.50;70.40;;;;;;10354885;28;20088;-60
2022/05/06 08:42:01;;;;;;;3.33;0.60;;;16.60;67.60;;;;;;10356053;28;20132;-60
2022/05/06 08:52:36;;;;;;;0.55;0.30;;;17.00;66.80;;;;;;10351057;28;20053;-59
2022/05/06 08:57:40;;;;;;;1.48;0.40;;;17.10;62.20;;;;;;10354108;28;20058;-58
2022/05/06 09:02:42;;;;;;;1.83;0.50;;;17.30;62.10;;;;;;10351476;28;20053;-58
2022/05/06 09:08:02;;;;;;;2.35;0.40;;;17.50;60.30;;;;;;10351618;28;20050;-59
2022/05/06 09:13:04;;;;;;;2.97;0.35;;;17.60;58.00;;;;;;10354158;28;20053;-57
2022/05/06 09:18:09;;;;;;;0.98;0.40;;;17.80;59.30;;;;;;10346264;28;20069;-58
2022/05/06 09:23:28;;;;;;;3.10;0.70;;;17.90;54.60;;;;;;10344810;28;20150;-59
2022/05/06 09:28:30;;;;;;;2.75;0.52;;;18.10;56.40;;;;;;10356434;28;20397;-58
2022/05/06 09:33:34;;;;;;;0.77;0.40;;;18.30;57.40;;;;;;10337234;28;20049;-58
2022/05/06 09:38:36;;;;;;;1.40;0.40;;;18.40;58.10;;;;;;10354149;28;20053;-59
2022/05/06 09:43:57;;;;;;;0.57;0.40;;;18.50;55.20;;;;;;10346381;28;20578;-58
2022/05/06 09:49:01;;;;;;;0.50;0.30;;;18.60;55.10;;;;;;10352165;28;20069;-58
2022/05/06 09:54:05;;;;;;;1.33;0.43;;;18.60;56.10;;;;;;10347202;28;20594;-58
2022/05/06 09:59:08;;;;;;;1.70;0.60;;;18.70;54.90;;;;;;10342697;28;20504;-58
2022/05/06 10:04:10;;;;;;;1.13;0.30;;;18.70;54.50;;;;;;10353262;28;20101;-58
2022/05/06 10:09:12;;;;;;;2.35;0.30;;;19.00;53.00;;;;;;10328788;28;20116;-58
2022/05/06 10:14:15;;;;;;;0.40;0.30;;;19.00;53.10;;;;;;10324625;28;20054;-57
2022/05/06 10:19:26;;;;;;;1.40;0.40;;;19.10;51.80;;;;;;10349363;28;20127;-59
2022/05/06 10:24:39;;;;;;;2.63;0.40;;;19.30;52.50;;;;;;10318869;28;20053;-59
2022/05/06 10:35:05;;;;;;;1.02;0.30;;;19.70;51.40;;;;;;10350757;28;20493;-59
2022/05/06 10:40:25;;;;;;;3.35;0.32;;;20.20;50.50;;;;;;10355112;28;20045;-59
2022/05/06 10:45:31;;;;;;;0.47;0.30;;;20.70;50.20;;;;;;10342959;28;22712;-59
2022/05/06 10:50:39;;;;;;;0.47;0.30;;;21.10;48.80;;;;;;10338562;28;20115;-58
2022/05/06 10:55:40;;;;;;;1.60;0.30;;;21.20;47.70;;;;;;10353099;28;20045;-59
2022/05/06 11:00:42;;;;;;;0.98;0.40;;;21.50;48.40;;;;;;10350572;28;20057;-58
2022/05/06 11:05:49;;;;;;;1.50;0.17;;;21.10;47.20;;;;;;10357327;28;20060;-58
2022/05/06 11:10:53;;;;;;;4.32;0.55;;;21.40;48.00;;;;;;10354317;28;20117;-58
2022/05/06 11:16:08;;;;;;;1.42;0.20;;;21.50;46.80;;;;;;10358135;28;20085;-60
2022/05/06 11:21:31;;;;;;;2.15;0.20;;;21.70;48.20;;;;;;10362899;28;20563;-60
2022/05/06 11:26:33;;;;;;;0.88;0.30;;;22.00;46.80;;;;;;10353590;28;20050;-58
2022/05/06 11:31:34;;;;;;;3.45;0.40;;;22.30;46.10;;;;;;10353866;28;20528;-59
2022/05/06 11:36:36;;;;;;;1.42;0.30;;;22.40;46.30;;;;;;10354270;28;20492;-58
2022/05/06 11:41:38;;;;;;;1.75;0.30;;;22.70;46.90;;;;;;10347800;28;20053;-57
2022/05/06 11:52:14;;;;;;;2.10;0.20;;;23.00;44.80;;;;;;10357564;28;20065;-57
2022/05/06 11:57:16;;;;;;;2.88;0.30;;;23.20;44.60;;;;;;10351631;28;20089;-58
2022/05/06 12:02:18;;;;;;;2.38;0.20;;;23.10;44.20;;;;;;10353772;28;20065;-58
2022/05/06 12:07:20;;;;;;;0.82;0.20;;;23.40;44.30;;;;;;10353709;28;20084;-58
2022/05/06 12:12:22;;;;;;;1.02;0.20;;;23.50;43.50;;;;;;10351061;28;20058;-57
2022/05/06 12:17:24;;;;;;;0.20;0.17;;;23.20;42.20;;;;;;10358847;28;20054;-59
2022/05/06 12:22:26;;;;;;;0.63;0.20;;;23.20;43.90;;;;;;10353128;28;20536;-57
2022/05/06 12:27:30;;;;;;;0.50;0.20;;;23.30;42.90;;;;;;10348514;28;20527;-58
2022/05/06 12:32:32;;;;;;;11.02;0.40;;;23.50;43.00;;;;;;10353602;28;20057;-57
2022/05/06 12:37:34;;;;;;;1.20;0.30;;;23.30;42.30;;;;;;10342483;28;20057;-58
2022/05/06 12:42:36;;;;;;;2.60;0.30;;;23.30;42.90;;;;;;10355527;28;20107;-59
2022/05/06 12:53:19;;;;;;;0.68;0.30;;;23.30;43.10;;;;;;10348419;28;20049;-58
2022/05/06 12:58:27;;;;;;;1.73;0.17;;;23.50;44.70;;;;;;10344017;28;20120;-58
2022/05/06 13:03:29;;;;;;;1.83;0.20;;;23.80;44.00;;;;;;10351872;28;20120;-56
2022/05/06 13:08:31;;;;;;;1.27;0.22;;;24.10;43.90;;;;;;10350624;28;20046;-59
2022/05/06 13:13:33;;;;;;;2.05;0.73;;;24.10;42.90;;;;;;10351193;28;20052;-59
2022/05/06 13:18:35;;;;;;;1.38;0.10;;;24.30;42.70;;;;;;10350721;28;20049;-61
2022/05/06 13:23:42;;;;;;;1.40;0.20;;;24.40;41.90;;;;;;10350054;28;20050;-61
2022/05/06 13:28:44;;;;;;;2.40;0.15;;;24.60;41.70;;;;;;10362685;28;20064;-60
2022/05/06 13:33:46;;;;;;;0.52;0.20;;;24.80;41.50;;;;;;10339056;28;20194;-59
2022/05/06 13:38:47;;;;;;;0.47;0.20;;;24.40;40.10;;;;;;10350310;28;20089;-61
2022/05/06 13:43:49;;;;;;;0.20;0.20;;;24.60;40.80;;;;;;10347210;28;20061;-62
2022/05/06 13:48:51;;;;;;;1.58;0.45;;;24.80;42.30;;;;;;10353032;28;20041;-62
2022/05/06 13:53:53;;;;;;;1.75;0.20;;;24.90;40.80;;;;;;10316635;28;20045;-60
2022/05/06 13:59:05;;;;;;;7.35;0.30;;;24.90;41.70;;;;;;10356316;28;20057;-61
2022/05/06 14:04:06;;;;;;;0.47;0.20;;;24.70;40.30;;;;;;10353134;28;20054;-62
2022/05/06 14:09:08;;;;;;;1.50;0.20;;;25.10;41.10;;;;;;10351738;28;20054;-61
2022/05/06 14:14:10;;;;;;;2.22;0.20;;;25.50;40.50;;;;;;10355587;28;20411;-58
2022/05/06 14:19:12;;;;;;;0.47;0.20;;;25.40;41.10;;;;;;10350469;28;20057;-59
2022/05/06 14:24:14;;;;;;;0.65;0.20;;;24.80;39.80;;;;;;10348471;28;20054;-58
2022/05/06 14:29:15;;;;;;;2.13;0.17;;;25.00;40.10;;;;;;10353783;28;20069;-59
2022/05/06 14:34:17;;;;;;;1.80;0.20;;;25.10;41.00;;;;;;10352425;28;20133;-58
2022/05/06 14:39:19;;;;;;;0.10;0.10;;;25.40;41.20;;;;;;10351214;28;20054;-59
2022/05/06 14:44:20;;;;;;;0.35;0.20;;;25.60;40.70;;;;;;10353311;28;20408;-59
2022/05/06 14:49:23;;;;;;;4.90;0.20;;;25.40;41.10;;;;;;10348419;28;20050;-59
2022/05/06 14:54:24;;;;;;;2.05;0.30;;;25.40;39.50;;;;;;10345090;28;20054;-59
2022/05/06 14:59:26;;;;;;;2.22;0.20;;;25.70;39.70;;;;;;10324781;28;20067;-59
2022/05/06 15:04:28;;;;;;;0.30;0.10;;;25.80;38.20;;;;;;10347979;28;20087;-59
2022/05/06 15:09:29;;;;;;;2.05;0.22;;;25.90;39.40;;;;;;10339502;28;20057;-60
2022/05/06 15:14:32;;;;;;;1.65;0.10;;;25.80;39.00;;;;;;10344406;28;20066;-60
2022/05/06 15:19:37;;;;;;;5.78;0.17;;;25.70;38.30;;;;;;10349728;28;20049;-60
2022/05/06 15:24:39;;;;;;;1.20;0.30;;;25.50;39.30;;;;;;10331424;28;20054;-60
2022/05/06 15:29:41;;;;;;;0.30;0.20;;;25.10;39.20;;;;;;10356807;28;20057;-60
2022/05/06 15:34:43;;;;;;;0.93;0.20;;;25.20;39.00;;;;;;10348718;28;20515;-59
2022/05/06 15:39:44;;;;;;;2.47;0.20;;;25.40;40.40;;;;;;10349836;28;20053;-60
2022/05/06 15:44:46;;;;;;;0.57;0.20;;;25.40;39.20;;;;;;10352627;28;20062;-59
2022/05/06 15:49:48;;;;;;;1.05;0.13;;;25.30;39.10;;;;;;10354988;28;20559;-59
2022/05/06 15:54:50;;;;;;;0.30;0.15;;;24.70;39.80;;;;;;10337105;28;20064;-58
2022/05/06 15:59:52;;;;;;;3.08;0.20;;;24.80;39.50;;;;;;10352138;28;20049;-59
2022/05/06 16:04:53;;;;;;;1.35;0.20;;;24.90;40.80;;;;;;10342361;28;20050;-59
2022/05/06 16:09:56;;;;;;;2.85;0.13;;;25.20;40.90;;;;;;10356687;28;20146;-59
2022/05/06 16:20:19;;;;;;;2.03;0.10;;;25.20;39.20;;;;;;10347074;28;20054;-59
2022/05/06 16:25:21;;;;;;;1.38;0.20;;;25.10;39.50;;;;;;10355048;28;20056;-59
2022/05/06 16:30:23;;;;;;;2.40;0.20;;;25.30;39.70;;;;;;10352839;28;20056;-58
2022/05/06 16:40:50;;;;;;;4.03;0.28;;;25.00;39.40;;;;;;10354815;28;20053;-59
2022/05/06 16:45:52;;;;;;;0.80;0.20;;;24.40;40.50;;;;;;10351444;28;20058;-59
2022/05/06 16:50:54;;;;;;;0.38;0.20;;;24.40;40.50;;;;;;10349538;28;20451;-60
2022/05/06 16:55:55;;;;;;;0.40;0.22;;;24.40;40.70;;;;;;10359110;28;20056;-59
2022/05/06 17:00:57;;;;;;;1.95;0.28;;;24.50;41.20;;;;;;10357097;28;20104;-58
2022/05/06 17:05:59;;;;;;;2.60;1.50;;;24.70;40.50;;;;;;10352934;28;20144;-59
2022/05/06 17:11:09;;;;;;;1.35;0.20;;;24.50;40.40;;;;;;10352541;28;20116;-59
2022/05/06 17:16:12;;;;;;;1.33;0.28;;;24.60;40.10;;;;;;10347173;28;20058;-60
2022/05/06 17:21:14;;;;;;;0.65;0.30;;;24.70;40.60;;;;;;10351377;28;20132;-58
2022/05/06 17:26:16;;;;;;;4.68;0.40;;;24.60;41.10;;;;;;10362127;28;20064;-58
2022/05/06 17:31:20;;;;;;;0.50;0.10;;;24.40;41.80;;;;;;10339254;28;20053;-58
2022/05/06 17:36:27;;;;;;;1.65;0.20;;;24.40;41.70;;;;;;10346976;28;20136;-59
2022/05/06 17:41:29;;;;;;;0.63;0.10;;;24.40;42.00;;;;;;10351688;28;20041;-58
2022/05/06 17:46:31;;;;;;;1.85;0.22;;;24.50;42.50;;;;;;10333646;28;20062;-58
2022/05/06 17:51:40;;;;;;;1.75;0.20;;;24.40;42.30;;;;;;10356454;28;20065;-60
2022/05/06 17:56:43;;;;;;;0.30;0.20;;;23.90;43.50;;;;;;10348610;28;20116;-59
2022/05/06 18:01:46;;;;;;;0.82;0.13;;;23.50;44.70;;;;;;10332994;28;20049;-59
2022/05/06 18:06:47;;;;;;;1.95;0.30;;;23.00;45.70;;;;;;10350045;28;20120;-59
2022/05/06 18:11:49;;;;;;;1.38;0.40;;;22.60;46.60;;;;;;10347979;28;20049;-58
2022/05/06 18:16:51;;;;;;;1.95;0.30;;;22.20;47.40;;;;;;10351023;28;20130;-60
2022/05/06 18:21:53;;;;;;;2.53;0.20;;;21.90;48.70;;;;;;10341878;28;20057;-60
2022/05/06 18:26:55;;;;;;;6.10;0.47;;;21.50;49.30;;;;;;10355491;28;20053;-58
2022/05/06 18:37:17;;;;;;;0.65;0.10;;;20.80;51.80;;;;;;10344239;28;20050;-58
2022/05/06 18:42:19;;;;;;;1.63;0.30;;;20.50;52.90;;;;;;10343938;28;20127;-59
2022/05/06 18:47:21;;;;;;;0.30;0.20;;;20.20;54.90;;;;;;10347584;28;20057;-59
2022/05/06 18:52:23;;;;;;;0.75;0.22;;;19.90;55.60;;;;;;10356797;28;20049;-59
2022/05/06 18:57:25;;;;;;;1.00;0.40;;;19.50;56.30;;;;;;10350833;28;20050;-60
2022/05/06 19:02:28;;;;;;;1.00;0.50;;;19.20;56.80;;;;;;10359374;28;20897;-59
2022/05/06 19:07:30;;;;;;;2.10;0.65;;;18.90;58.00;;;;;;10361209;28;20053;-59
2022/05/06 19:12:32;;;;;;;2.67;0.63;;;18.60;58.40;;;;;;10354095;28;20042;-59
2022/05/06 19:17:33;;;;;;;1.95;0.70;;;18.40;59.30;;;;;;10356447;28;20049;-59
2022/05/06 19:27:55;;;;;;;2.35;0.80;;;17.80;60.80;;;;;;10348539;28;20508;-59
2022/05/06 19:32:57;;;;;;;0.60;0.50;;;17.70;61.10;;;;;;10349402;28;20094;-59
2022/05/06 19:38:00;;;;;;;5.38;0.30;;;17.30;61.80;;;;;;10359319;28;20116;-60
2022/05/06 19:43:07;;;;;;;4.93;0.70;;;17.00;63.00;;;;;;10351232;28;20057;-60
2022/05/06 19:48:08;;;;;;;2.83;0.50;;;16.80;64.80;;;;;;10337462;28;20050;-59
2022/05/06 19:53:11;;;;;;;5.70;1.33;;;16.60;66.10;;;;;;10334475;28;20515;-60
2022/05/06 19:58:13;;;;;;;6.07;1.00;;;16.40;68.90;;;;;;10336504;28;20058;-59
2022/05/06 20:03:15;;;;;;;1.98;0.85;;;16.20;70.10;;;;;;10335102;28;20057;-60
2022/05/06 20:08:16;;;;;;;3.63;1.33;;;16.10;71.30;;;;;;10356806;28;20113;-59
2022/05/06 20:13:18;;;;;;;7.45;2.92;;;15.90;72.50;;;;;;10350109;28;20054;-60
2022/05/06 20:18:20;;;;;;;8.20;2.53;;;15.70;75.00;;;;;;10352642;28;20045;-59
2022/05/06 20:23:22;;;;;;;9.23;2.53;;;15.50;76.50;;;;;;10329901;28;20508;-58
2022/05/06 20:28:23;;;;;;;8.85;2.95;;;15.30;77.80;;;;;;10359924;28;20050;-58
2022/05/06 20:33:25;;;;;;;6.18;2.95;;;15.10;78.20;;;;;;10336337;28;20057;-59
2022/05/06 20:38:27;;;;;;;5.05;2.00;;;14.90;80.10;;;;;;10339749;28;20058;-59
2022/05/06 20:43:29;;;;;;;8.65;2.50;;;14.80;81.10;;;;;;10346264;28;20076;-58
2022/05/06 20:48:31;;;;;;;1.73;0.93;;;14.60;82.00;;;;;;10348938;28;20056;-59
2022/05/06 20:53:34;;;;;;;3.58;1.20;;;14.40;82.50;;;;;;10355785;28;20062;-59
2022/05/06 21:03:56;;;;;;;5.85;1.45;;;14.10;84.30;;;;;;10350800;28;20038;-59
2022/05/06 21:14:18;;;;;;;3.85;2.13;;;14.00;89.00;;;;;;10341919;28;20390;-59
2022/05/06 21:19:22;;;;;;;6.53;1.75;;;13.90;89.70;;;;;;10337412;28;20046;-59
2022/05/06 21:24:23;;;;;;;7.45;1.80;;;13.80;90.30;;;;;;10356328;28;20121;-59
2022/05/06 21:29:25;;;;;;;4.55;1.42;;;13.70;90.80;;;;;;10439592;23;20037;-60
2022/05/06 21:34:52;;;;;;;1.52;0.70;;;13.70;91.50;;;;;;10387105;28;20063;-59
2022/05/06 21:39:54;;;;;;;3.83;1.35;;;13.50;90.70;;;;;;10382540;28;20057;-59
2022/05/06 21:44:56;;;;;;;3.30;1.20;;;13.40;90.60;;;;;;10365931;28;20501;-59
2022/05/06 21:49:58;;;;;;;11.30;2.03;;;13.40;90.60;;;;;;10359705;28;20140;-59
2022/05/06 21:55:00;;;;;;;2.83;1.20;;;13.20;90.50;;;;;;10370740;28;20526;-59
2022/05/06 22:00:04;;;;;;;2.97;1.10;;;13.20;90.70;;;;;;10355028;28;20113;-59
2022/05/06 22:05:06;;;;;;;5.95;1.23;;;13.10;91.30;;;;;;10389618;28;20053;-61
2022/05/06 22:10:08;;;;;;;4.50;0.93;;;13.10;91.80;;;;;;10347402;28;20049;-60
2022/05/06 22:15:12;;;;;;;4.45;1.27;;;13.00;91.80;;;;;;10370298;28;20144;-61
2022/05/06 22:20:14;;;;;;;4.13;1.10;;;12.90;91.60;;;;;;10357697;28;20049;-59
2022/05/06 22:25:15;;;;;;;10.25;2.22;;;12.90;92.40;;;;;;10364362;28;20519;-60
2022/05/06 22:30:17;;;;;;;7.82;2.33;;;12.80;93.80;;;;;;10396806;28;20052;-59
2022/05/06 22:35:19;;;;;;;8.13;2.83;;;12.80;94.60;;;;;;10433343;28;20525;-60
2022/05/06 22:40:25;;;;;;;10.20;2.75;;;12.70;95.60;;;;;;10450994;28;20131;-59
2022/05/06 22:46:01;;;;;;;13.47;3.83;;;12.60;97.00;;;;;;10438087;28;20082;-59
2022/05/06 22:50:55;;;;;;;18.75;3.60;;;12.50;97.60;;;;;;10420436;28;20103;-60
2022/05/06 22:56:00;;;;;;;15.60;3.58;;;12.50;98.20;;;;;;10444476;28;20465;-59
2022/05/06 23:01:02;;;;;;;15.27;3.05;;;12.40;98.10;;;;;;10425317;28;20057;-59
2022/05/06 23:06:05;;;;;;;13.02;2.80;;;12.30;99.40;;;;;;10423834;28;20049;-60
2022/05/06 23:11:06;;;;;;;13.80;2.65;;;12.30;99.70;;;;;;10409169;28;21024;-60
2022/05/06 23:16:08;;;;;;;11.40;2.75;;;12.10;99.90;;;;;;10407469;28;20048;-58
2022/05/06 23:21:10;;;;;;;12.90;2.85;;;12.00;99.90;;;;;;10428525;28;20144;-59
2022/05/06 23:26:12;;;;;;;12.20;2.90;;;11.90;99.90;;;;;;10435805;28;20064;-59
2022/05/06 23:31:14;;;;;;;14.05;2.58;;;11.80;99.90;;;;;;10439226;28;20053;-59
2022/05/06 23:41:36;;;;;;;12.40;2.53;;;11.70;99.90;;;;;;10430156;28;20060;-59
2022/05/06 23:46:40;;;;;;;11.73;2.42;;;11.60;99.90;;;;;;10415283;28;20045;-59
2022/05/06 23:51:42;;;;;;;17.30;2.88;;;11.50;99.90;;;;;;10428069;28;20048;-59
2022/05/06 23:56:43;;;;;;;9.00;1.92;;;11.50;99.90;;;;;;10426567;28;20188;-58
